createdAt,value
2018-03-24T00:00:59.306Z,100168.81
2018-03-24T00:03:27.683Z,100173.07
2018-03-24T00:05:56.183Z,100168.64
2018-03-24T00:08:24.650Z,100169.13
2018-03-24T00:10:53.274Z,100170.69
2018-03-24T00:13:21.796Z,100169.52
2018-03-24T00:15:50.482Z,100164.41
2018-03-24T00:18:19.146Z,100158.81
2018-03-24T00:20:48.054Z,100163.79
2018-03-24T00:23:16.679Z,100151.58
2018-03-24T00:25:45.540Z,100156.36
2018-03-24T00:28:14.367Z,100159.44
2018-03-24T00:30:43.219Z,100156.22
2018-03-24T00:33:11.739Z,100155.56
2018-03-24T00:35:40.455Z,100158.91
2018-03-24T00:38:08.943Z,100158.09
2018-03-24T00:40:37.309Z,100157.02
2018-03-24T00:43:05.799Z,100164.02
2018-03-24T00:45:34.188Z,100161.58
2018-03-24T00:48:02.662Z,100151.15
2018-03-24T00:50:31.163Z,100141.81
2018-03-24T00:52:59.710Z,100159.07
2018-03-24T00:55:28.103Z,100152.31
2018-03-24T00:57:58.230Z,100158.68
2018-03-24T01:00:26.939Z,100160.56
2018-03-24T01:02:55.325Z,100157.34
2018-03-24T01:05:23.761Z,100158.89
2018-03-24T01:07:52.129Z,100158.25
2018-03-24T01:10:20.515Z,100155.66
2018-03-24T01:12:50.075Z,100155.41
2018-03-24T01:15:18.504Z,100151.94
2018-03-24T01:17:46.973Z,100153.59
2018-03-24T01:20:15.908Z,100158.84
2018-03-24T01:22:45.126Z,100148.67
2018-03-24T01:25:13.621Z,100146.83
2018-03-24T01:27:43.019Z,100149.27
2018-03-24T01:30:11.488Z,100149.73
2018-03-24T01:32:39.964Z,100147.94
2018-03-24T01:35:09.090Z,100158.72
2018-03-24T01:37:37.500Z,100147.12
2018-03-24T01:40:05.889Z,100148.41
2018-03-24T01:42:34.281Z,100143.72
2018-03-24T01:45:02.721Z,100143.64
2018-03-24T01:47:31.099Z,100143.39
2018-03-24T01:50:00.024Z,100143.21
2018-03-24T01:52:28.377Z,100150.05
2018-03-24T01:54:56.735Z,100140.09
2018-03-24T01:57:25.144Z,100143.82
2018-03-24T01:59:53.626Z,100141.08
2018-03-24T02:02:21.987Z,100148.55
2018-03-24T02:04:50.455Z,100141.17
2018-03-24T02:07:18.953Z,100143.73
2018-03-24T02:09:47.328Z,100136.74
2018-03-24T02:12:15.900Z,100131.44
2018-03-24T02:14:44.382Z,100133.77
2018-03-24T02:17:12.855Z,100135.12
2018-03-24T02:19:41.548Z,100135.31
2018-03-24T02:22:10.039Z,100130.48
2018-03-24T02:24:44.639Z,100127.17
2018-03-24T02:27:13.199Z,100128.63
2018-03-24T02:29:41.871Z,100125.73
2018-03-24T02:32:10.408Z,100125.19
2018-03-24T02:34:38.814Z,100127.50
2018-03-24T02:37:07.215Z,100115.98
2018-03-24T02:39:35.670Z,100117.45
2018-03-24T02:42:04.045Z,100115.96
2018-03-24T02:44:32.460Z,100117.77
2018-03-24T02:47:00.919Z,100123.67
2018-03-24T02:49:29.285Z,100122.96
2018-03-24T02:51:57.677Z,100119.41
2018-03-24T02:54:26.110Z,100119.79
2018-03-24T02:56:54.526Z,100119.03
2018-03-24T02:59:22.866Z,100122.74
2018-03-24T03:01:51.364Z,100123.34
2018-03-24T03:04:19.757Z,100125.89
2018-03-24T03:06:48.144Z,100123.39
2018-03-24T03:09:16.656Z,100120.78
2018-03-24T03:11:45.027Z,100128.53
2018-03-24T03:14:13.426Z,100127.00
2018-03-24T03:16:42.031Z,100125.47
2018-03-24T03:19:10.436Z,100125.04
2018-03-24T03:21:58.608Z,100126.73
2018-03-24T03:24:26.946Z,100120.31
2018-03-24T03:26:55.280Z,100127.64
2018-03-24T03:29:24.369Z,100130.70
2018-03-24T03:32:04.461Z,100130.28
2018-03-24T03:34:33.182Z,100131.27
2018-03-24T03:37:01.560Z,100127.99
2018-03-24T03:39:29.964Z,100130.53
2018-03-24T03:41:58.385Z,100126.18
2018-03-24T03:44:26.778Z,100135.05
2018-03-24T03:46:55.145Z,100133.70
2018-03-24T03:49:24.131Z,100131.90
2018-03-24T03:51:52.501Z,100128.84
2018-03-24T03:54:20.854Z,100133.64
2018-03-24T03:56:49.306Z,100128.86
2018-03-24T03:59:17.703Z,100136.56
2018-03-24T04:01:46.107Z,100136.28
2018-03-24T04:04:15.093Z,100134.19
2018-03-24T04:06:43.527Z,100144.07
2018-03-24T04:09:11.934Z,100142.80
2018-03-24T04:11:41.113Z,100141.59
2018-03-24T04:14:09.536Z,100141.22
2018-03-24T04:16:37.894Z,100137.91
2018-03-24T04:19:06.374Z,100138.64
2018-03-24T04:21:34.698Z,100136.91
2018-03-24T04:24:03.145Z,100134.64
2018-03-24T04:26:31.604Z,100133.91
2018-03-24T04:28:59.921Z,100133.65
2018-03-24T04:31:28.266Z,100141.45
2018-03-24T04:33:56.632Z,100144.88
2018-03-24T04:36:24.991Z,100138.68
2018-03-24T04:38:53.370Z,100137.36
2018-03-24T04:41:22.008Z,100136.94
2018-03-24T04:43:50.372Z,100134.78
2018-03-24T04:46:18.718Z,100138.31
2018-03-24T04:48:48.296Z,100127.80
2018-03-24T04:51:16.705Z,100134.19
2018-03-24T04:53:45.034Z,100137.62
2018-03-24T04:56:13.584Z,100136.23
2018-03-24T04:58:42.024Z,100138.27
2018-03-24T05:01:10.538Z,100144.44
2018-03-24T05:03:40.841Z,100145.95
2018-03-24T05:06:09.262Z,100144.15
2018-03-24T05:08:37.709Z,100141.92
2018-03-24T05:11:06.181Z,100142.70
2018-03-24T05:13:34.552Z,100145.83
2018-03-24T05:16:02.915Z,100152.63
2018-03-24T05:18:31.381Z,100151.64
2018-03-24T05:20:59.831Z,100152.05
2018-03-24T05:23:28.203Z,100154.58
2018-03-24T05:25:57.448Z,100152.27
2018-03-24T05:28:25.845Z,100163.33
2018-03-24T05:30:54.228Z,100158.61
2018-03-24T05:33:22.845Z,100158.69
2018-03-24T05:35:51.271Z,100151.93
2018-03-24T05:38:19.652Z,100158.51
2018-03-24T05:40:48.151Z,100157.91
2018-03-24T05:43:16.551Z,100161.27
2018-03-24T05:45:44.962Z,100165.51
2018-03-24T05:48:13.505Z,100166.09
2018-03-24T05:50:41.887Z,100157.91
2018-03-24T05:53:10.294Z,100161.30
2018-03-24T05:55:38.752Z,100160.81
2018-03-24T05:58:07.086Z,100170.77
2018-03-24T06:00:35.532Z,100168.67
2018-03-24T06:03:03.990Z,100176.48
2018-03-24T06:05:32.386Z,100176.10
2018-03-24T06:08:00.829Z,100180.22
2018-03-24T06:10:30.018Z,100177.72
2018-03-24T06:12:58.415Z,100183.95
2018-03-24T06:15:27.498Z,100184.92
2018-03-24T06:17:56.882Z,100187.66
2018-03-24T06:20:25.288Z,100182.95
2018-03-24T06:22:53.634Z,100192.93
2018-03-24T06:25:22.201Z,100195.89
2018-03-24T06:27:50.555Z,100189.52
2018-03-24T06:30:20.474Z,100205.14
2018-03-24T06:32:50.007Z,100198.20
2018-03-24T06:35:18.396Z,100202.61
2018-03-24T06:37:47.626Z,100201.42
2018-03-24T06:40:24.679Z,100200.28
2018-03-24T06:42:53.450Z,100205.36
2018-03-24T06:45:21.990Z,100205.19
2018-03-24T06:47:53.396Z,100206.27
2018-03-24T06:50:23.820Z,100211.14
2018-03-24T06:52:52.412Z,100216.96
2018-03-24T06:55:20.827Z,100215.12
2018-03-24T06:57:49.234Z,100216.97
2018-03-24T07:00:17.788Z,100217.81
2018-03-24T07:02:46.184Z,100218.91
2018-03-24T07:05:14.596Z,100213.02
2018-03-24T07:07:43.125Z,100217.70
2018-03-24T07:10:11.529Z,100217.74
2018-03-24T07:12:40.023Z,100216.23
2018-03-24T07:15:08.404Z,100223.73
2018-03-24T07:17:36.816Z,100225.12
2018-03-24T07:20:05.690Z,100223.52
2018-03-24T07:22:34.058Z,100217.62
2018-03-24T07:25:03.650Z,100217.44
2018-03-24T07:27:32.120Z,100215.84
2018-03-24T07:30:00.542Z,100219.09
2018-03-24T07:32:28.897Z,100227.03
2018-03-24T07:34:58.185Z,100224.16
2018-03-24T07:37:26.562Z,100226.41
2018-03-24T07:39:55.979Z,100223.66
2018-03-24T07:42:25.276Z,100234.05
2018-03-24T07:44:53.670Z,100224.20
2018-03-24T07:47:22.167Z,100228.08
2018-03-24T07:49:51.129Z,100232.88
2018-03-24T07:52:19.520Z,100227.74
2018-03-24T07:54:47.905Z,100225.38
2018-03-24T07:57:16.565Z,100230.89
2018-03-24T07:59:46.479Z,100231.44
2018-03-24T08:05:46.584Z,100231.09
2018-03-24T08:08:15.101Z,100237.84
2018-03-24T08:10:43.575Z,100234.97
2018-03-24T08:13:12.158Z,100235.89
2018-03-24T08:15:40.881Z,100238.05
2018-03-24T08:18:09.463Z,100237.91
2018-03-24T08:20:38.203Z,100239.54
2018-03-24T08:23:06.575Z,100240.03
2018-03-24T08:25:34.997Z,100238.81
2018-03-24T08:28:03.849Z,100239.38
2018-03-24T08:30:32.255Z,100242.73
2018-03-24T08:33:00.632Z,100242.46
2018-03-24T08:35:29.341Z,100242.23
2018-03-24T08:37:57.801Z,100239.63
2018-03-24T08:40:26.209Z,100247.34
2018-03-24T08:42:54.989Z,100242.39
2018-03-24T08:45:23.400Z,100250.53
2018-03-24T08:47:51.932Z,100252.73
2018-03-24T08:50:20.382Z,100255.69
2018-03-24T08:52:50.132Z,100251.77
2018-03-24T08:55:18.925Z,100253.87
2018-03-24T08:57:47.522Z,100253.56
2018-03-24T09:00:16.355Z,100258.41
2018-03-24T09:02:45.047Z,100261.16
2018-03-24T09:05:13.731Z,100261.58
2018-03-24T09:07:53.703Z,100261.05
2018-03-24T09:10:31.067Z,100266.58
2018-03-24T09:12:59.531Z,100264.02
2018-03-24T09:15:27.935Z,100265.58
2018-03-24T09:17:56.344Z,100259.55
2018-03-24T09:20:25.722Z,100268.53
2018-03-24T09:22:54.127Z,100256.12
2018-03-24T09:25:22.939Z,100267.41
2018-03-24T09:27:51.385Z,100269.08
2018-03-24T09:30:19.807Z,100269.81
2018-03-24T09:32:48.485Z,100268.03
2018-03-24T09:35:17.244Z,100270.89
2018-03-24T09:37:46.639Z,100268.77
2018-03-24T09:40:15.233Z,100272.34
2018-03-24T09:42:43.656Z,100269.42
2018-03-24T09:45:12.447Z,100273.38
2018-03-24T09:47:42.773Z,100268.64
2018-03-24T09:50:11.318Z,100268.91
2018-03-24T09:52:40.403Z,100265.98
2018-03-24T09:55:09.704Z,100266.70
2018-03-24T09:57:38.162Z,100266.59
2018-03-24T10:00:06.537Z,100269.34
2018-03-24T10:02:36.045Z,100268.78
2018-03-24T10:05:04.483Z,100269.95
2018-03-24T10:07:32.876Z,100271.01
2018-03-24T10:10:01.311Z,100274.64
2018-03-24T10:12:29.737Z,100276.86
2018-03-24T10:14:58.176Z,100270.55
2018-03-24T10:17:26.954Z,100279.12
2018-03-24T10:19:55.823Z,100278.20
2018-03-24T10:25:46.573Z,100274.13
2018-03-24T10:28:15.847Z,100279.33
2018-03-24T10:30:44.561Z,100271.17
2018-03-24T10:33:13.466Z,100274.08
2018-03-24T10:35:43.675Z,100269.14
2018-03-24T10:38:12.285Z,100271.97
2018-03-24T10:40:40.784Z,100274.26
2018-03-24T10:43:15.783Z,100279.30
2018-03-24T10:45:45.285Z,100278.95
2018-03-24T10:48:14.067Z,100278.39
2018-03-24T10:50:43.875Z,100274.09
2018-03-24T10:53:13.433Z,100271.74
2018-03-24T10:55:42.585Z,100271.27
2018-03-24T10:58:11.211Z,100272.39
2018-03-24T11:00:39.742Z,100269.27
2018-03-24T11:03:10.144Z,100271.60
2018-03-24T11:05:38.930Z,100276.84
2018-03-24T11:08:07.879Z,100270.78
2018-03-24T11:10:36.286Z,100266.44
2018-03-24T11:13:05.093Z,100274.09
2018-03-24T11:15:33.631Z,100269.34
2018-03-24T11:18:02.733Z,100271.95
2018-03-24T11:20:31.511Z,100273.27
2018-03-24T11:23:00.003Z,100270.43
2018-03-24T11:25:28.774Z,100267.95
2018-03-24T11:27:57.361Z,100269.02
2018-03-24T11:30:25.938Z,100275.75
2018-03-24T11:32:54.420Z,100273.69
2018-03-24T11:35:23.928Z,100272.84
2018-03-24T11:37:52.721Z,100273.88
2018-03-24T11:40:22.589Z,100274.09
2018-03-24T11:42:51.950Z,100273.51
2018-03-24T11:45:20.784Z,100266.78
2018-03-24T11:47:50.044Z,100273.12
2018-03-24T11:50:18.564Z,100273.00
2018-03-24T11:52:47.194Z,100280.39
2018-03-24T11:55:15.791Z,100274.05
2018-03-24T11:57:44.442Z,100277.89
2018-03-24T12:00:12.952Z,100277.41
2018-03-24T12:02:41.374Z,100271.63
2018-03-24T12:05:09.819Z,100271.27
2018-03-24T12:07:38.183Z,100277.15
2018-03-24T12:10:06.583Z,100274.84
2018-03-24T12:12:35.323Z,100269.56
2018-03-24T12:15:03.700Z,100274.78
2018-03-24T12:17:32.134Z,100271.17
2018-03-24T12:20:00.515Z,100274.17
2018-03-24T12:22:29.015Z,100273.30
2018-03-24T12:24:57.376Z,100273.83
2018-03-24T12:27:26.794Z,100273.89
2018-03-24T12:29:55.223Z,100273.94
2018-03-24T12:32:24.727Z,100275.27
2018-03-24T12:34:53.371Z,100277.84
2018-03-24T12:37:21.777Z,100272.39
2018-03-24T12:39:51.246Z,100273.52
2018-03-24T12:42:19.835Z,100272.29
2018-03-24T12:44:48.350Z,100273.16
2018-03-24T12:47:16.850Z,100263.83
2018-03-24T12:49:46.355Z,100268.23
2018-03-24T12:52:14.818Z,100267.60
2018-03-24T12:54:43.311Z,100261.63
2018-03-24T12:57:12.075Z,100269.73
2018-03-24T12:59:40.553Z,100267.39
2018-03-24T13:02:11.041Z,100269.08
2018-03-24T13:04:41.654Z,100266.11
2018-03-24T13:07:10.700Z,100266.72
2018-03-24T13:09:39.123Z,100262.42
2018-03-24T13:12:08.892Z,100271.52
2018-03-24T13:14:38.838Z,100265.14
2018-03-24T13:17:07.445Z,100266.88
2018-03-24T13:19:36.553Z,100263.02
2018-03-24T13:22:04.970Z,100273.03
2018-03-24T13:24:34.587Z,100272.65
2018-03-24T13:27:03.093Z,100274.48
2018-03-24T13:29:31.470Z,100273.48
2018-03-24T13:31:59.857Z,100279.03
2018-03-24T13:34:28.882Z,100275.25
2018-03-24T13:36:57.293Z,100274.00
2018-03-24T13:39:25.705Z,100277.33
2018-03-24T13:41:55.213Z,100279.45
2018-03-24T13:44:23.592Z,100276.56
2018-03-24T13:46:52.181Z,100276.47
2018-03-24T13:49:21.073Z,100287.03
2018-03-24T13:51:49.552Z,100281.52
2018-03-24T13:54:18.042Z,100286.03
2018-03-24T13:56:46.558Z,100283.66
2018-03-24T13:59:14.977Z,100290.98
2018-03-24T14:04:45.326Z,100281.14
2018-03-24T14:10:17.990Z,100288.34
2018-03-24T14:12:46.591Z,100281.02
2018-03-24T14:15:15.425Z,100291.13
2018-03-24T14:17:44.011Z,100289.73
2018-03-24T14:20:13.432Z,100285.73
2018-03-24T14:22:42.296Z,100288.42
2018-03-24T14:25:11.392Z,100290.12
2018-03-24T14:27:41.353Z,100294.09
2018-03-24T14:30:10.217Z,100292.28
2018-03-24T14:32:38.639Z,100292.07
2018-03-24T14:35:07.119Z,100287.58
2018-03-24T14:37:35.686Z,100290.03
2018-03-24T14:40:04.178Z,100287.27
2018-03-24T14:42:32.642Z,100289.34
2018-03-24T14:45:01.124Z,100288.70
2018-03-24T14:47:32.770Z,100283.28
2018-03-24T14:50:03.210Z,100288.40
2018-03-24T14:52:31.601Z,100282.91
2018-03-24T14:55:00.030Z,100281.58
2018-03-24T14:57:28.492Z,100286.43
2018-03-24T14:59:57.055Z,100284.13
2018-03-24T15:02:26.534Z,100290.46
2018-03-24T15:04:55.306Z,100282.69
2018-03-24T15:07:23.783Z,100287.39
2018-03-24T15:09:52.181Z,100296.85
2018-03-24T15:12:21.177Z,100287.45
2018-03-24T15:14:49.623Z,100295.09
2018-03-24T15:17:18.082Z,100289.63
2018-03-24T15:19:47.353Z,100286.58
2018-03-24T15:22:15.741Z,100286.17
2018-03-24T15:24:44.298Z,100292.83
2018-03-24T15:27:13.149Z,100295.31
2018-03-24T15:29:53.309Z,100301.56
2018-03-24T15:32:33.609Z,100291.61
2018-03-24T15:35:13.974Z,100292.03
2018-03-24T15:37:43.309Z,100291.40
2018-03-24T15:40:12.046Z,100291.67
2018-03-24T15:42:40.584Z,100284.88
2018-03-24T15:45:08.979Z,100289.46
2018-03-24T15:47:37.387Z,100287.31
2018-03-24T15:50:05.967Z,100293.04
2018-03-24T15:52:34.353Z,100297.68
2018-03-24T15:55:02.843Z,100298.95
2018-03-24T15:57:31.298Z,100295.50
2018-03-24T15:59:59.863Z,100294.04
2018-03-24T16:02:28.221Z,100294.52
2018-03-24T16:04:56.619Z,100293.98
2018-03-24T16:07:26.341Z,100291.37
2018-03-24T16:09:54.732Z,100297.05
2018-03-24T16:12:23.136Z,100303.23
2018-03-24T16:14:51.874Z,100303.86
2018-03-24T16:17:20.304Z,100296.53
2018-03-24T16:19:48.785Z,100302.41
2018-03-24T16:22:17.283Z,100301.44
2018-03-24T16:24:45.889Z,100297.68
2018-03-24T16:27:14.368Z,100308.33
2018-03-24T16:29:43.107Z,100310.97
2018-03-24T16:32:12.617Z,100306.56
2018-03-24T16:34:41.552Z,100313.30
2018-03-24T16:37:10.494Z,100314.54
2018-03-24T16:39:41.120Z,100311.51
2018-03-24T16:42:14.002Z,100309.08
2018-03-24T16:44:43.578Z,100313.51
2018-03-24T16:47:12.051Z,100313.47
2018-03-24T16:49:41.607Z,100316.32
2018-03-24T16:52:10.855Z,100309.83
2018-03-24T16:54:39.269Z,100306.74
2018-03-24T16:57:07.857Z,100308.85
2018-03-24T16:59:36.364Z,100309.27
2018-03-24T17:02:04.746Z,100309.17
2018-03-24T17:04:33.148Z,100304.68
2018-03-24T17:07:01.557Z,100309.30
2018-03-24T17:09:29.952Z,100302.96
2018-03-24T17:11:58.357Z,100303.99
2018-03-24T17:14:26.862Z,100296.67
2018-03-24T17:16:55.369Z,100293.34
2018-03-24T17:19:23.878Z,100293.56
2018-03-24T17:21:52.352Z,100297.52
2018-03-24T17:24:20.957Z,100292.33
2018-03-24T17:26:49.823Z,100298.88
2018-03-24T17:29:20.133Z,100307.41
2018-03-24T17:31:48.625Z,100308.68
2018-03-24T17:34:17.554Z,100308.30
2018-03-24T17:36:46.822Z,100312.22
2018-03-24T17:39:15.349Z,100315.17
2018-03-24T17:41:44.012Z,100312.38
2018-03-24T17:44:13.059Z,100304.31
2018-03-24T17:46:41.696Z,100308.80
2018-03-24T17:49:10.189Z,100308.72
2018-03-24T17:51:39.573Z,100318.03
2018-03-24T17:54:08.103Z,100318.57
2018-03-24T17:56:36.585Z,100317.42
2018-03-24T17:59:05.420Z,100313.91
2018-03-24T18:01:33.847Z,100329.06
2018-03-24T18:04:02.294Z,100328.52
2018-03-24T18:06:31.824Z,100330.69
2018-03-24T18:09:00.194Z,100335.19
2018-03-24T18:11:29.649Z,100336.15
2018-03-24T18:13:58.542Z,100344.19
2018-03-24T18:16:27.433Z,100344.82
2018-03-24T18:18:56.347Z,100343.83
2018-03-24T18:21:24.896Z,100341.48
2018-03-24T18:23:53.466Z,100344.02
2018-03-24T18:26:22.055Z,100354.33
2018-03-24T18:28:51.113Z,100353.05
2018-03-24T18:31:19.856Z,100356.38
2018-03-24T18:33:48.652Z,100354.73
2018-03-24T18:36:19.227Z,100348.49
2018-03-24T18:38:48.270Z,100359.04
2018-03-24T18:41:17.366Z,100356.58
2018-03-24T18:43:46.354Z,100358.94
2018-03-24T18:46:15.128Z,100363.59
2018-03-24T18:48:44.447Z,100357.85
2018-03-24T18:51:14.567Z,100366.08
2018-03-24T18:53:44.166Z,100364.27
2018-03-24T18:56:13.474Z,100365.64
2018-03-24T18:58:42.620Z,100367.82
2018-03-24T19:01:12.875Z,100364.08
2018-03-24T19:03:41.886Z,100361.12
2018-03-24T19:06:11.351Z,100369.83
2018-03-24T19:08:40.077Z,100370.51
2018-03-24T19:11:08.598Z,100372.98
2018-03-24T19:13:38.344Z,100380.67
2018-03-24T19:16:06.944Z,100375.71
2018-03-24T19:18:35.361Z,100381.70
2018-03-24T19:21:04.979Z,100379.87
2018-03-24T19:23:33.492Z,100376.98
2018-03-24T19:26:02.252Z,100382.74
2018-03-24T19:28:30.885Z,100390.31
2018-03-24T19:30:59.255Z,100383.03
2018-03-24T19:33:27.774Z,100387.95
2018-03-24T19:35:56.651Z,100383.34
2018-03-24T19:38:25.143Z,100390.14
2018-03-24T19:40:54.050Z,100385.33
2018-03-24T19:43:23.629Z,100388.16
2018-03-24T19:45:53.882Z,100392.02
2018-03-24T19:48:23.615Z,100388.11
2018-03-24T19:50:52.438Z,100386.66
2018-03-24T19:53:21.044Z,100390.55
2018-03-24T19:55:49.955Z,100388.73
2018-03-24T19:58:20.600Z,100390.46
2018-03-24T20:00:49.455Z,100391.26
2018-03-24T20:03:18.261Z,100388.25
2018-03-24T20:05:48.468Z,100388.84
2018-03-24T20:08:17.256Z,100384.79
2018-03-24T20:10:46.496Z,100383.52
2018-03-24T20:13:15.810Z,100386.64
2018-03-24T20:15:45.309Z,100390.27
2018-03-24T20:18:14.918Z,100388.99
2018-03-24T20:20:44.634Z,100390.80
2018-03-24T20:23:13.362Z,100394.17
2018-03-24T20:25:42.516Z,100393.30
2018-03-24T20:28:16.113Z,100392.73
2018-03-24T20:30:45.095Z,100397.35
2018-03-24T20:33:14.196Z,100400.78
2018-03-24T20:35:43.733Z,100397.35
2018-03-24T20:38:12.302Z,100393.78
2018-03-24T20:40:40.945Z,100398.17
2018-03-24T20:43:11.021Z,100395.39
2018-03-24T20:45:39.356Z,100398.28
2018-03-24T20:48:07.891Z,100399.35
2018-03-24T20:50:36.450Z,100395.49
2018-03-24T20:53:04.829Z,100400.58
2018-03-24T20:55:33.392Z,100400.69
2018-03-24T20:58:01.878Z,100401.70
2018-03-24T21:00:30.298Z,100405.86
2018-03-24T21:02:58.779Z,100403.70
2018-03-24T21:05:27.562Z,100404.55
2018-03-24T21:07:56.106Z,100409.67
2018-03-24T21:10:24.983Z,100408.71
2018-03-24T21:12:54.620Z,100412.06
2018-03-24T21:15:23.391Z,100408.17
2018-03-24T21:17:51.968Z,100411.97
2018-03-24T21:20:20.756Z,100410.20
2018-03-24T21:22:49.320Z,100421.52
2018-03-24T21:25:18.173Z,100414.19
2018-03-24T21:27:46.583Z,100412.19
2018-03-24T21:30:15.097Z,100416.02
2018-03-24T21:32:43.959Z,100415.58
2018-03-24T21:35:12.546Z,100409.03
2018-03-24T21:37:40.922Z,100407.98
2018-03-24T21:40:09.270Z,100408.03
2018-03-24T21:42:38.876Z,100412.45
2018-03-24T21:45:07.374Z,100410.30
2018-03-24T21:47:36.259Z,100409.87
2018-03-24T21:50:04.691Z,100407.11
2018-03-24T21:52:33.117Z,100410.52
2018-03-24T21:55:01.590Z,100401.36
2018-03-24T21:57:30.299Z,100405.61
2018-03-24T21:59:59.182Z,100409.17
2018-03-24T22:02:27.654Z,100407.31
2018-03-24T22:04:56.038Z,100406.94
2018-03-24T22:07:24.421Z,100407.31
2018-03-24T22:09:52.928Z,100410.90
2018-03-24T22:12:21.837Z,100409.34
2018-03-24T22:14:50.387Z,100399.24
2018-03-24T22:17:18.919Z,100405.23
2018-03-24T22:19:47.400Z,100404.20
2018-03-24T22:22:16.178Z,100403.72
2018-03-24T22:24:45.081Z,100413.41
2018-03-24T22:27:13.913Z,100406.96
2018-03-24T22:29:43.152Z,100408.94
2018-03-24T22:32:11.580Z,100412.43
2018-03-24T22:34:40.674Z,100412.56
2018-03-24T22:37:09.114Z,100415.85
2018-03-24T22:39:37.542Z,100413.72
2018-03-24T22:42:06.457Z,100410.53
2018-03-24T22:44:34.870Z,100414.14
2018-03-24T22:47:03.398Z,100412.36
2018-03-24T22:49:32.021Z,100409.88
2018-03-24T22:52:00.398Z,100410.30
2018-03-24T22:54:29.080Z,100407.91
2018-03-24T22:56:58.135Z,100404.50
2018-03-24T22:59:26.881Z,100401.20
2018-03-24T23:01:55.311Z,100403.87
2018-03-24T23:04:24.304Z,100401.80
2018-03-24T23:06:52.740Z,100397.88
2018-03-24T23:09:21.292Z,100392.08
2018-03-24T23:11:49.983Z,100396.09
2018-03-24T23:14:18.684Z,100397.47
2018-03-24T23:16:47.783Z,100393.80
